Aérodrome :
LOGIN :

S'inscrire | Disclaimer

   EN    FR    IT 

 










Légende :    VFR   VFR Marginal   IFR   IFR Intensif   IFR Très Intensif
Visi : 
Plafond : 
>= 8 km
>= 3000ft
5 à 8 km
1000 à 3000 ft
1500m à 5 km
500 à 1000 ft
800 à 1500m
200 à 500 ft
< 800m
< 200 ft
Symboles :   Orages  Brouillard  Fortes neiges  Fortes précipitations  Vent > 20 kt
SIGMETs :   Divers  Orages  Givrage  Turbulence  Onde Orograph.  Cendres Volcan.






- Altitude de l'aérodrome : 256 ft
- Code IATA : CFR


LFRK - Caen

DERNIER METAR :
  • 270730Z AUTO 18010KT 9999 FEW016 BKN047 OVC056 08/07 Q1007 TEMPO BKN010

METARs EXPIRÉS :
  • 270700Z AUTO 20009KT CAVOK 08/07 Q1007 TEMPO BKN010
  • 270630Z AUTO 20008KT 9999 FEW030 SCT064 BKN160 07/06 Q1007 TEMPO BKN010
  • 270600Z AUTO 21006KT 9999 FEW024 BKN190 06/06 Q1008 TEMPO BKN010
  • 270530Z AUTO 20007KT CAVOK 06/05 Q1008
  • 270500Z AUTO 20007KT CAVOK 06/06 Q1008
  • 270430Z AUTO 21008KT CAVOK 07/06 Q1008

TAF TAF LFRK
Valide du 27 à 06h jusqu'au 27 à 15h UTC


270500Z 2706/2715 20010KT 9999 BKN030
TEMPO 2706/2709 BKN010
TEMPO 2713/2715 22015G25KT 3000 SHRA BKN015TCU
PROB30
TEMPO 2713/2715 BKN012CB
Météo : +33 2 31 26 68 11



MET'MAP, la Météo Aéronautique d'un coup d'oeil ! - Copyright ORBIFLY Décembre 2007 - Disclaimer

ORBIFLY MET'MAP TEAM :

Programmation & Développement : Alexandra Zaïnal
Sur une idée originale de : Baudouin d'Aumeries
Assistance à la programmation : Marc-Olivier Méhu
Soutien technique & logistique : Manuel Goepfert

Contact : metmap@orbifly.com




SOURCES & CREDITS :

   NOAA